Time;durP1;ratioP1;P1;durP2;ratioP2;P2;SDS_P1;SDS_P2;PMS_P1;PMS_P2;Temp;Humidity;BMP_temperature;BMP_pressure;BME280_temperature;BME280_humidity;BME280_pressure;Samples;Min_cycle;Max_cycle;Signal;HPM_P1;HPM_P2
2022/04/18 00:02:08;;;;;;;21.23;18.87;;;12.00;55.80;;;;;;5014176;28;20176;-65
2022/04/18 00:04:35;;;;;;;19.60;17.90;;;12.00;55.30;;;;;;5013401;28;20214;-66
2022/04/18 00:07:01;;;;;;;22.20;19.07;;;12.00;55.40;;;;;;5014032;28;20183;-65
2022/04/18 00:09:30;;;;;;;20.87;18.23;;;12.00;56.10;;;;;;5013973;28;20413;-65
2022/04/18 00:11:56;;;;;;;19.60;17.60;;;11.90;55.40;;;;;;5013705;28;20422;-65
2022/04/18 00:14:23;;;;;;;20.20;17.00;;;11.90;54.60;;;;;;5014186;28;20766;-65
2022/04/18 00:16:48;;;;;;;19.07;17.27;;;11.90;55.40;;;;;;5013292;28;20420;-65
2022/04/18 00:19:14;;;;;;;19.03;17.07;;;11.90;54.40;;;;;;5014106;28;20422;-65
2022/04/18 00:21:39;;;;;;;17.20;15.57;;;11.90;54.80;;;;;;5013156;28;20186;-66
2022/04/18 00:24:05;;;;;;;16.87;15.10;;;11.90;56.10;;;;;;5013388;28;20179;-65
2022/04/18 00:26:31;;;;;;;16.27;14.87;;;11.90;56.70;;;;;;5013742;28;20182;-65
2022/04/18 00:28:57;;;;;;;15.33;13.83;;;11.80;56.90;;;;;;5011865;28;20183;-65
2022/04/18 00:31:22;;;;;;;16.17;14.53;;;11.70;56.50;;;;;;5013597;28;20174;-65
2022/04/18 00:33:48;;;;;;;15.67;14.17;;;11.70;56.20;;;;;;5013002;28;20183;-65
2022/04/18 00:36:14;;;;;;;16.40;14.90;;;11.60;56.70;;;;;;5013816;28;20542;-65
2022/04/18 00:38:40;;;;;;;15.80;14.20;;;11.50;57.20;;;;;;5012979;28;20177;-66
2022/04/18 00:41:06;;;;;;;14.50;13.10;;;11.50;56.50;;;;;;5013465;28;20179;-65
2022/04/18 00:43:38;;;;;;;13.30;12.10;;;11.50;57.90;;;;;;5013456;28;20426;-65
2022/04/18 00:46:04;;;;;;;13.87;12.63;;;11.40;57.60;;;;;;5011894;28;20218;-65
2022/04/18 00:48:30;;;;;;;13.27;11.93;;;11.40;57.70;;;;;;5013244;28;20822;-65
2022/04/18 00:50:55;;;;;;;11.50;10.37;;;11.30;58.20;;;;;;5012424;28;20182;-65
2022/04/18 00:53:21;;;;;;;10.50;9.60;;;11.30;58.40;;;;;;5013561;28;20187;-66
2022/04/18 00:55:47;;;;;;;10.10;9.10;;;11.30;58.00;;;;;;5012673;28;20190;-65
2022/04/18 00:58:15;;;;;;;11.70;9.33;;;11.20;58.40;;;;;;5012914;28;20410;-66
2022/04/18 01:00:40;;;;;;;9.13;8.20;;;11.20;58.20;;;;;;5012473;28;20530;-65
2022/04/18 01:03:06;;;;;;;14.50;8.70;;;11.20;57.00;;;;;;5013047;28;20464;-65
2022/04/18 01:05:32;;;;;;;9.83;8.90;;;11.20;56.60;;;;;;5013076;28;20212;-65
2022/04/18 01:07:59;;;;;;;8.37;7.60;;;11.20;56.90;;;;;;5012367;28;20179;-65
2022/04/18 01:10:24;;;;;;;9.63;8.63;;;11.20;55.10;;;;;;5013023;28;20412;-65
2022/04/18 01:12:50;;;;;;;9.03;8.23;;;11.30;56.30;;;;;;5012070;28;20767;-66
2022/04/18 01:15:16;;;;;;;8.03;7.33;;;11.30;57.40;;;;;;5012935;28;20233;-66
2022/04/18 01:17:41;;;;;;;7.97;7.30;;;11.30;57.70;;;;;;5012405;28;20182;-66
2022/04/18 01:20:08;;;;;;;7.80;7.10;;;11.30;56.00;;;;;;5012923;28;20199;-65
2022/04/18 01:22:35;;;;;;;8.53;7.73;;;11.30;55.30;;;;;;5012804;28;20189;-65
2022/04/18 01:30:30;;;;;;;7.37;6.80;;;11.40;51.20;;;;;;5012635;28;20805;-65
2022/04/18 01:32:56;;;;;;;8.27;6.97;;;11.60;51.00;;;;;;5027519;28;20406;-66
2022/04/18 01:35:21;;;;;;;7.70;7.00;;;11.70;52.10;;;;;;5012769;28;20183;-66
2022/04/18 01:37:47;;;;;;;7.97;7.37;;;11.70;52.70;;;;;;5012183;28;20506;-66
2022/04/18 01:40:13;;;;;;;7.67;7.07;;;11.70;51.50;;;;;;5012705;28;20609;-66
2022/04/18 01:42:39;;;;;;;7.77;7.07;;;11.70;52.20;;;;;;5011891;28;20180;-66
2022/04/18 01:45:05;;;;;;;7.20;6.50;;;11.80;53.80;;;;;;5012650;28;20219;-65
2022/04/18 01:47:31;;;;;;;6.70;6.20;;;11.60;54.00;;;;;;5012563;28;20189;-65
2022/04/18 01:49:56;;;;;;;7.20;6.70;;;11.40;53.80;;;;;;5011788;28;20397;-65
2022/04/18 01:52:22;;;;;;;7.63;6.93;;;11.70;54.10;;;;;;5012452;28;20175;-65
2022/04/18 01:54:48;;;;;;;7.40;6.63;;;11.70;54.40;;;;;;5011851;28;20184;-66
2022/04/18 01:57:14;;;;;;;7.53;6.90;;;11.60;54.50;;;;;;5012553;28;20182;-65
2022/04/18 01:59:42;;;;;;;7.07;6.47;;;11.60;55.20;;;;;;5012030;28;20186;-68
2022/04/18 02:02:08;;;;;;;6.40;6.00;;;11.50;54.80;;;;;;5012802;28;20175;-66
2022/04/18 02:04:34;;;;;;;7.07;6.57;;;11.50;55.40;;;;;;5012479;28;20472;-65
2022/04/18 02:07:00;;;;;;;6.67;6.17;;;11.50;54.70;;;;;;5011935;28;20514;-65
2022/04/18 02:09:25;;;;;;;6.90;6.30;;;11.50;54.00;;;;;;5012405;28;20501;-65
2022/04/18 02:11:51;;;;;;;5.33;4.93;;;11.50;54.70;;;;;;5011621;28;20173;-66
2022/04/18 02:14:17;;;;;;;6.37;5.77;;;11.40;51.70;;;;;;5014648;28;20177;-66
2022/04/18 02:16:43;;;;;;;6.90;6.40;;;11.40;51.10;;;;;;5015206;28;20175;-66
2022/04/18 02:19:09;;;;;;;6.23;5.80;;;11.50;52.10;;;;;;5016048;28;20785;-65
2022/04/18 02:21:34;;;;;;;6.40;5.90;;;11.50;53.00;;;;;;5016302;28;20260;-65
2022/04/18 02:24:00;;;;;;;6.30;5.77;;;11.60;52.20;;;;;;5015403;28;20186;-66
2022/04/18 02:26:26;;;;;;;5.10;4.60;;;11.60;51.50;;;;;;5015810;28;20210;-65
2022/04/18 02:28:51;;;;;;;5.47;5.17;;;11.70;50.80;;;;;;5015337;28;20630;-65
2022/04/18 02:31:17;;;;;;;6.60;6.00;;;11.60;50.20;;;;;;5016032;28;20312;-65
2022/04/18 02:33:43;;;;;;;6.03;5.53;;;11.60;50.10;;;;;;5014958;28;20186;-66
2022/04/18 02:36:08;;;;;;;5.90;5.40;;;11.60;50.10;;;;;;5015758;28;20179;-65
2022/04/18 02:38:34;;;;;;;5.37;5.07;;;11.70;50.20;;;;;;5015759;28;20179;-65
2022/04/18 02:41:00;;;;;;;6.47;5.80;;;11.80;50.30;;;;;;5013766;28;20194;-65
2022/04/18 02:43:25;;;;;;;6.17;5.67;;;11.80;50.00;;;;;;5015453;28;20213;-65
2022/04/18 02:45:51;;;;;;;5.80;5.40;;;11.90;50.10;;;;;;5014949;28;20211;-66
2022/04/18 02:48:17;;;;;;;5.60;5.20;;;11.90;50.70;;;;;;5015142;28;20224;-65
2022/04/18 02:50:43;;;;;;;5.70;5.30;;;12.00;52.00;;;;;;5014989;28;20735;-67
2022/04/18 02:53:08;;;;;;;5.83;5.33;;;12.00;52.70;;;;;;5015122;28;20210;-65
2022/04/18 02:55:34;;;;;;;6.50;5.90;;;12.00;53.30;;;;;;5015467;28;20233;-65
2022/04/18 02:58:00;;;;;;;5.13;4.73;;;11.90;51.70;;;;;;5014793;28;20233;-66
2022/04/18 03:00:26;;;;;;;5.83;5.40;;;11.90;51.40;;;;;;5015289;28;20659;-65
2022/04/18 03:02:51;;;;;;;5.80;5.30;;;11.90;50.60;;;;;;5014437;28;20616;-65
2022/04/18 03:05:17;;;;;;;5.80;5.40;;;11.80;50.40;;;;;;5015180;28;20210;-65
2022/04/18 03:07:43;;;;;;;5.47;5.17;;;11.80;51.60;;;;;;5013249;28;20589;-68
2022/04/18 03:10:09;;;;;;;5.57;5.17;;;11.80;52.20;;;;;;5014055;28;20445;-66
2022/04/18 03:12:35;;;;;;;6.90;6.20;;;11.70;51.30;;;;;;5014837;28;20185;-66
2022/04/18 03:15:02;;;;;;;6.40;5.90;;;11.80;51.60;;;;;;5014753;28;20842;-65
2022/04/18 03:17:28;;;;;;;6.57;6.13;;;11.70;51.30;;;;;;5015097;28;20422;-65
2022/04/18 03:19:54;;;;;;;5.97;5.57;;;11.80;51.20;;;;;;5014371;28;20933;-65
2022/04/18 03:22:20;;;;;;;6.40;5.90;;;11.80;51.60;;;;;;5014870;28;20176;-65
2022/04/18 03:24:46;;;;;;;6.20;5.70;;;12.00;52.60;;;;;;5012620;28;20470;-66
2022/04/18 03:27:12;;;;;;;5.93;5.43;;;11.90;52.10;;;;;;5014827;28;20411;-65
2022/04/18 03:29:38;;;;;;;5.33;4.80;;;11.90;53.50;;;;;;5014508;28;20414;-65
2022/04/18 03:32:04;;;;;;;5.33;4.93;;;11.80;54.30;;;;;;5014163;28;20211;-65
2022/04/18 03:34:30;;;;;;;5.93;5.43;;;11.80;55.00;;;;;;5014574;28;20414;-65
2022/04/18 03:39:54;;;;;;;5.77;5.30;;;11.70;55.30;;;;;;5014392;28;20191;-65
2022/04/18 03:42:30;;;;;;;5.20;4.90;;;11.60;54.80;;;;;;5014813;28;20927;-65
2022/04/18 03:45:02;;;;;;;5.90;5.40;;;11.60;55.00;;;;;;5012678;28;20818;-66
2022/04/18 03:47:28;;;;;;;5.57;5.17;;;11.60;54.80;;;;;;5013941;28;20429;-65
2022/04/18 03:49:54;;;;;;;9.50;5.57;;;11.40;54.70;;;;;;5013834;28;20748;-66
2022/04/18 03:52:21;;;;;;;5.40;5.03;;;11.50;54.90;;;;;;5013221;28;20895;-66
2022/04/18 03:54:46;;;;;;;5.33;4.93;;;11.40;55.20;;;;;;5013683;28;20425;-66
2022/04/18 03:57:13;;;;;;;5.83;5.33;;;11.30;53.50;;;;;;5014217;28;20414;-65
2022/04/18 03:59:39;;;;;;;6.10;5.60;;;11.30;53.00;;;;;;5014419;28;20179;-65
2022/04/18 04:02:05;;;;;;;5.30;4.80;;;11.20;53.10;;;;;;5012558;28;20901;-65
2022/04/18 04:04:31;;;;;;;5.47;5.07;;;11.30;54.50;;;;;;5014222;28;20213;-65
2022/04/18 04:06:57;;;;;;;5.43;5.07;;;11.40;54.90;;;;;;5013618;28;20414;-66
2022/04/18 04:09:22;;;;;;;5.87;5.37;;;11.40;53.90;;;;;;5014346;28;20201;-65
2022/04/18 04:11:48;;;;;;;5.80;5.33;;;11.40;54.20;;;;;;5013439;28;20429;-66
2022/04/18 04:14:14;;;;;;;5.20;4.80;;;11.50;55.30;;;;;;5013920;28;20188;-65
2022/04/18 04:16:40;;;;;;;5.40;5.10;;;11.40;55.50;;;;;;5013961;28;20179;-65
2022/04/18 04:19:06;;;;;;;5.43;5.07;;;11.40;55.90;;;;;;5013629;28;20195;-65
2022/04/18 04:21:35;;;;;;;5.40;5.00;;;11.30;54.70;;;;;;5013708;28;20534;-65
2022/04/18 04:24:02;;;;;;;4.93;4.53;;;11.30;55.80;;;;;;5013530;28;20418;-65
2022/04/18 04:26:28;;;;;;;5.27;4.87;;;11.20;56.40;;;;;;5013732;28;20461;-65
2022/04/18 04:28:54;;;;;;;5.20;4.80;;;11.30;56.80;;;;;;5011847;28;20866;-65
2022/04/18 04:31:19;;;;;;;5.40;5.03;;;11.30;57.90;;;;;;5013627;28;20440;-66
2022/04/18 04:33:45;;;;;;;4.90;4.50;;;11.20;57.60;;;;;;5013446;28;20175;-66
2022/04/18 04:36:15;;;;;;;6.97;6.30;;;11.10;57.70;;;;;;5012408;28;20185;-65
2022/04/18 04:38:41;;;;;;;5.40;4.90;;;11.00;56.40;;;;;;5013845;28;20180;-65
2022/04/18 04:41:07;;;;;;;5.30;4.80;;;11.00;55.90;;;;;;5013019;28;20488;-65
2022/04/18 04:43:33;;;;;;;5.40;5.00;;;11.00;56.60;;;;;;5013575;28;20439;-65
2022/04/18 04:46:02;;;;;;;4.93;4.60;;;11.00;57.00;;;;;;5011636;28;20654;-65
2022/04/18 04:48:28;;;;;;;5.00;4.60;;;11.00;57.70;;;;;;5013049;28;20869;-65
2022/04/18 04:50:54;;;;;;;4.50;4.13;;;11.00;58.40;;;;;;5012825;28;20448;-65
2022/04/18 04:53:20;;;;;;;4.87;4.50;;;11.00;57.00;;;;;;5012148;28;20180;-65
2022/04/18 04:55:46;;;;;;;4.50;4.20;;;11.00;56.90;;;;;;5013436;28;20846;-65
2022/04/18 04:58:11;;;;;;;4.60;4.30;;;10.80;55.50;;;;;;5012613;28;20177;-65
2022/04/18 05:00:38;;;;;;;5.60;5.10;;;10.80;55.60;;;;;;5013303;28;20246;-65
2022/04/18 05:03:04;;;;;;;5.50;5.07;;;10.70;55.40;;;;;;5012933;28;20503;-65
2022/04/18 05:05:32;;;;;;;6.20;5.57;;;10.80;55.10;;;;;;5013233;28;20531;-65
2022/04/18 05:07:58;;;;;;;4.50;4.20;;;11.00;56.10;;;;;;5012608;28;20417;-66
2022/04/18 05:10:24;;;;;;;5.47;4.97;;;10.90;55.00;;;;;;5012816;28;20423;-65
2022/04/18 05:12:50;;;;;;;6.37;5.77;;;11.00;55.60;;;;;;5012828;28;20410;-65
2022/04/18 05:15:15;;;;;;;6.40;5.80;;;11.20;56.10;;;;;;5013062;28;20171;-65
2022/04/18 05:17:41;;;;;;;7.30;6.43;;;11.20;55.30;;;;;;5012893;28;20440;-65
2022/04/18 05:20:08;;;;;;;8.50;7.60;;;11.20;55.10;;;;;;5011196;28;20184;-65
2022/04/18 05:22:33;;;;;;;7.70;7.00;;;11.20;55.10;;;;;;5013048;28;20168;-65
2022/04/18 05:24:59;;;;;;;9.30;8.33;;;11.40;55.00;;;;;;5012410;28;20515;-65
2022/04/18 05:27:25;;;;;;;6.37;5.87;;;11.50;55.60;;;;;;5012404;28;20182;-65
2022/04/18 05:29:51;;;;;;;6.40;5.60;;;11.60;56.00;;;;;;5013312;28;20171;-66
2022/04/18 05:32:17;;;;;;;5.10;4.70;;;11.60;56.50;;;;;;5013088;28;20254;-66
2022/04/18 05:34:43;;;;;;;5.40;5.00;;;11.70;56.10;;;;;;5012896;28;20425;-66
2022/04/18 05:37:10;;;;;;;5.10;4.70;;;11.70;55.80;;;;;;5012251;28;20409;-65
2022/04/18 05:39:35;;;;;;;4.63;4.33;;;11.80;56.80;;;;;;5012737;28;20461;-65
2022/04/18 05:42:01;;;;;;;4.57;4.13;;;11.80;57.70;;;;;;5010952;28;20421;-65
2022/04/18 05:44:28;;;;;;;5.40;5.00;;;11.90;59.10;;;;;;5012585;28;20627;-65
2022/04/18 05:46:53;;;;;;;5.27;4.80;;;11.90;58.50;;;;;;5012174;28;20480;-66
2022/04/18 05:49:19;;;;;;;5.63;5.13;;;11.90;57.90;;;;;;5016698;28;20961;-65
2022/04/18 05:51:45;;;;;;;5.87;5.37;;;11.90;56.90;;;;;;5016684;28;20171;-65
2022/04/18 05:54:11;;;;;;;5.93;4.40;;;11.90;56.20;;;;;;5016285;28;20172;-66
2022/04/18 05:56:37;;;;;;;5.27;4.83;;;11.90;55.80;;;;;;5016749;28;20313;-66
2022/04/18 05:59:02;;;;;;;4.40;3.93;;;11.90;56.20;;;;;;5015724;28;20181;-66
2022/04/18 06:01:31;;;;;;;5.10;4.60;;;11.90;55.40;;;;;;5016337;28;20428;-65
2022/04/18 06:03:57;;;;;;;5.13;4.77;;;12.00;55.50;;;;;;5015896;28;20175;-65
2022/04/18 06:06:23;;;;;;;4.93;4.53;;;12.10;55.70;;;;;;5016010;28;20475;-65
2022/04/18 06:08:48;;;;;;;4.67;4.37;;;12.10;55.10;;;;;;5015838;28;20178;-65
2022/04/18 06:11:14;;;;;;;4.73;4.37;;;12.00;54.60;;;;;;5014576;28;20410;-66
2022/04/18 06:13:41;;;;;;;4.73;4.43;;;12.10;55.00;;;;;;5016281;28;20205;-65
2022/04/18 06:16:07;;;;;;;4.73;4.33;;;12.30;55.10;;;;;;5014550;28;20412;-65
2022/04/18 06:18:33;;;;;;;5.23;4.90;;;12.20;54.30;;;;;;5015940;28;20425;-66
2022/04/18 06:20:59;;;;;;;5.00;4.60;;;12.40;55.30;;;;;;5015566;28;20414;-66
2022/04/18 06:23:25;;;;;;;4.80;4.40;;;12.50;54.90;;;;;;5016126;28;20893;-65
2022/04/18 06:25:51;;;;;;;4.70;4.40;;;12.50;54.90;;;;;;5015989;28;20242;-65
2022/04/18 06:28:19;;;;;;;5.30;4.80;;;12.60;54.50;;;;;;5015002;28;20439;-65
2022/04/18 06:30:44;;;;;;;4.70;4.30;;;12.70;54.50;;;;;;5015993;28;20171;-65
2022/04/18 06:33:13;;;;;;;4.03;3.83;;;12.80;54.60;;;;;;5015226;28;20434;-65
2022/04/18 06:35:42;;;;;;;4.40;4.10;;;12.90;54.50;;;;;;5015821;28;20186;-66
2022/04/18 06:38:08;;;;;;;4.70;4.30;;;12.90;54.10;;;;;;5015232;28;20466;-66
2022/04/18 06:40:33;;;;;;;3.90;3.70;;;12.90;53.70;;;;;;5015829;28;20889;-65
2022/04/18 06:42:59;;;;;;;4.17;3.80;;;13.00;54.20;;;;;;5014883;28;20412;-65
2022/04/18 06:45:26;;;;;;;4.20;4.00;;;13.10;54.20;;;;;;5014294;28;20513;-69
2022/04/18 06:47:52;;;;;;;4.67;4.37;;;13.10;54.10;;;;;;5015534;28;20255;-69
2022/04/18 06:50:18;;;;;;;4.30;4.00;;;13.10;54.00;;;;;;5015003;28;20808;-68
2022/04/18 06:52:51;;;;;;;4.40;4.10;;;13.40;61.10;;;;;;5015332;28;20273;-68
2022/04/18 06:55:17;;;;;;;4.40;4.10;;;13.70;59.10;;;;;;5013420;28;20420;-68
2022/04/18 06:57:43;;;;;;;4.50;4.30;;;14.00;56.10;;;;;;5013714;28;20788;-68
2022/04/18 07:00:09;;;;;;;4.60;4.30;;;13.90;53.60;;;;;;5013784;28;20194;-68
2022/04/18 07:02:35;;;;;;;4.50;4.20;;;13.70;51.10;;;;;;5013325;28;20178;-68
2022/04/18 07:05:01;;;;;;;4.37;4.10;;;13.70;54.70;;;;;;5028365;28;20463;-68
2022/04/18 07:07:27;;;;;;;4.23;4.03;;;13.70;53.10;;;;;;5013920;28;20170;-68
2022/04/18 07:09:52;;;;;;;4.63;4.33;;;14.00;57.20;;;;;;5013749;28;20409;-69
2022/04/18 07:12:22;;;;;;;4.80;4.50;;;14.20;54.90;;;;;;5013334;28;20364;-68
2022/04/18 07:14:49;;;;;;;10.83;9.50;;;14.30;55.00;;;;;;5013785;28;20518;-68
2022/04/18 07:17:14;;;;;;;4.80;4.40;;;14.40;53.70;;;;;;5013306;28;20437;-68
2022/04/18 07:19:40;;;;;;;7.03;6.30;;;14.50;52.30;;;;;;5014537;28;20434;-68
2022/04/18 07:22:06;;;;;;;4.50;4.20;;;14.70;55.50;;;;;;5014434;28;20510;-68
2022/04/18 07:24:32;;;;;;;7.37;6.67;;;14.90;53.80;;;;;;5013815;28;20510;-68
2022/04/18 07:27:01;;;;;;;30.67;22.20;;;14.90;52.30;;;;;;5014457;28;20414;-69
2022/04/18 07:29:27;;;;;;;5.20;4.90;;;15.00;53.60;;;;;;5014636;28;20897;-68
2022/04/18 07:31:53;;;;;;;5.13;4.53;;;15.20;52.60;;;;;;5014548;28;20417;-68
2022/04/18 07:34:19;;;;;;;4.30;4.00;;;14.90;49.60;;;;;;5012989;28;20419;-68
2022/04/18 07:36:45;;;;;;;8.30;7.00;;;14.80;50.10;;;;;;5014825;28;20418;-70
2022/04/18 07:39:11;;;;;;;5.10;4.70;;;14.80;49.90;;;;;;5012761;28;20772;-68
2022/04/18 07:41:36;;;;;;;10.23;9.23;;;14.80;50.60;;;;;;5014800;28;20171;-68
2022/04/18 07:44:03;;;;;;;6.47;5.87;;;14.80;52.40;;;;;;5013950;28;20222;-68
2022/04/18 07:46:30;;;;;;;4.67;4.33;;;15.00;52.30;;;;;;5014442;28;20227;-68
2022/04/18 07:48:56;;;;;;;6.00;5.53;;;15.10;51.40;;;;;;5014058;28;20464;-68
2022/04/18 07:51:32;;;;;;;4.97;4.60;;;15.30;52.90;;;;;;5014128;28;20429;-68
2022/04/18 07:53:59;;;;;;;4.87;4.60;;;15.20;50.90;;;;;;5014189;28;20390;-68
2022/04/18 07:56:25;;;;;;;4.67;4.33;;;15.20;51.10;;;;;;5014347;28;20447;-68
2022/04/18 07:58:51;;;;;;;248.07;188.93;;;15.30;52.10;;;;;;5013964;28;20426;-68
2022/04/18 08:01:18;;;;;;;18.87;13.80;;;15.50;54.00;;;;;;5029186;28;20662;-68
2022/04/18 08:03:44;;;;;;;30.58;19.98;;;15.90;53.40;;;;;;5012914;28;20418;-68
2022/04/18 08:06:10;;;;;;;7.07;6.40;;;16.10;51.60;;;;;;5013328;28;20206;-69
2022/04/18 08:08:36;;;;;;;5.10;4.60;;;16.30;49.90;;;;;;5013894;28;20417;-68
2022/04/18 08:11:03;;;;;;;5.83;5.33;;;16.30;48.50;;;;;;5012378;28;20224;-69
2022/04/18 08:13:29;;;;;;;10.33;9.40;;;16.40;49.60;;;;;;5013714;28;20647;-69
2022/04/18 08:15:55;;;;;;;9.10;8.20;;;16.60;52.50;;;;;;5013922;28;20418;-69
2022/04/18 08:18:21;;;;;;;10.37;7.90;;;16.90;51.60;;;;;;5013562;28;20434;-69
2022/04/18 08:20:46;;;;;;;7.50;6.70;;;17.20;50.90;;;;;;5012035;28;20424;-69
2022/04/18 08:23:12;;;;;;;7.07;6.37;;;17.50;50.00;;;;;;5011598;28;20434;-69
2022/04/18 08:25:38;;;;;;;5.83;5.40;;;17.70;49.00;;;;;;5012186;28;20289;-69
2022/04/18 08:28:04;;;;;;;6.60;4.40;;;17.90;48.50;;;;;;5012962;28;20686;-69
2022/04/18 08:30:30;;;;;;;4.90;4.60;;;18.00;47.90;;;;;;5013350;28;20526;-68
2022/04/18 08:32:56;;;;;;;7.30;6.60;;;18.00;47.70;;;;;;5013527;28;20413;-68
2022/04/18 08:35:21;;;;;;;82.33;59.43;;;17.80;47.20;;;;;;5012335;28;20967;-69
2022/04/18 08:37:48;;;;;;;10.43;9.43;;;17.70;47.20;;;;;;5013034;28;20174;-69
2022/04/18 08:40:14;;;;;;;4.90;4.30;;;17.70;46.20;;;;;;5012498;28;20175;-69
2022/04/18 08:42:41;;;;;;;5.50;5.03;;;17.40;45.00;;;;;;5012911;28;20414;-68
2022/04/18 08:45:09;;;;;;;4.40;4.10;;;17.30;44.90;;;;;;5011894;28;20454;-68
2022/04/18 08:53:13;;;;;;;5.87;5.40;;;17.40;48.90;;;;;;5012130;28;20398;-71
2022/04/18 08:55:42;;;;;;;4.70;4.40;;;17.50;49.50;;;;;;5012601;28;20905;-71
2022/04/18 08:58:12;;;;;;;4.87;4.47;;;17.60;50.90;;;;;;5011303;28;20448;-71
2022/04/18 09:00:38;;;;;;;4.90;4.60;;;17.60;49.60;;;;;;5013151;28;20936;-71
2022/04/18 09:03:04;;;;;;;4.60;4.30;;;17.70;48.10;;;;;;5012590;28;20472;-73
2022/04/18 09:05:35;;;;;;;4.70;4.40;;;17.80;49.10;;;;;;5013235;28;20461;-71
2022/04/18 09:08:04;;;;;;;4.67;4.40;;;17.90;49.30;;;;;;5013218;28;20447;-71
2022/04/18 09:10:29;;;;;;;5.10;4.70;;;17.90;49.80;;;;;;5013189;28;20773;-71
2022/04/18 09:13:06;;;;;;;4.80;4.37;;;18.00;49.80;;;;;;5012019;28;20414;-71
2022/04/18 09:15:43;;;;;;;4.47;4.27;;;18.20;49.50;;;;;;5012993;28;20183;-72
2022/04/18 09:18:15;;;;;;;4.70;4.40;;;18.30;49.50;;;;;;5012391;28;20430;-72
2022/04/18 09:20:43;;;;;;;4.50;4.30;;;18.40;49.80;;;;;;5012927;28;20749;-71
2022/04/18 09:23:22;;;;;;;4.53;4.33;;;18.60;50.10;;;;;;5027240;28;20505;-71
2022/04/18 09:26:08;;;;;;;5.40;5.10;;;18.70;48.80;;;;;;5012638;28;20830;-71
2022/04/18 09:28:37;;;;;;;4.80;4.50;;;18.80;45.20;;;;;;5012899;28;20441;-71
2022/04/18 09:31:11;;;;;;;5.03;4.73;;;19.10;45.00;;;;;;5012516;28;20437;-71
2022/04/18 09:33:45;;;;;;;5.20;4.70;;;19.30;46.50;;;;;;5012549;28;20410;-71
2022/04/18 09:36:20;;;;;;;4.90;4.60;;;19.50;48.00;;;;;;5012249;28;20424;-71
2022/04/18 09:38:54;;;;;;;4.67;4.27;;;19.70;44.50;;;;;;5012776;28;20425;-71
2022/04/18 09:41:31;;;;;;;4.07;3.87;;;19.90;43.90;;;;;;5012116;28;20437;-71
2022/04/18 09:43:57;;;;;;;4.40;4.10;;;20.10;42.40;;;;;;5012862;28;20492;-71
2022/04/18 09:46:23;;;;;;;6.67;6.17;;;20.30;43.30;;;;;;5012118;28;20476;-71
2022/04/18 09:48:51;;;;;;;4.77;4.37;;;20.50;41.00;;;;;;5012311;28;20462;-71
2022/04/18 09:51:23;;;;;;;4.27;4.07;;;20.70;42.00;;;;;;5012115;28;20190;-71
2022/04/18 09:53:52;;;;;;;4.20;3.90;;;20.90;42.10;;;;;;5012682;28;20414;-71
2022/04/18 09:56:21;;;;;;;4.03;3.73;;;21.10;39.50;;;;;;5011050;28;20438;-74
2022/04/18 09:58:47;;;;;;;4.07;3.87;;;21.00;40.90;;;;;;5007791;28;20429;-72
2022/04/18 10:01:13;;;;;;;3.93;3.73;;;21.20;41.80;;;;;;5001723;28;20496;-72
2022/04/18 10:03:41;;;;;;;3.90;3.70;;;21.30;41.50;;;;;;5009135;28;20191;-74
2022/04/18 10:06:08;;;;;;;4.60;4.30;;;21.40;38.50;;;;;;5009049;28;20954;-72
2022/04/18 10:08:35;;;;;;;4.47;4.10;;;21.40;37.70;;;;;;5009260;28;20434;-70
2022/04/18 10:11:02;;;;;;;4.20;4.00;;;21.30;36.60;;;;;;5008961;28;20430;-66
2022/04/18 10:13:30;;;;;;;6.00;5.60;;;21.30;38.40;;;;;;5008164;28;20430;-66
2022/04/18 10:16:00;;;;;;;4.50;4.20;;;21.40;42.00;;;;;;5008922;28;20434;-69
2022/04/18 10:18:27;;;;;;;4.90;4.50;;;21.50;40.30;;;;;;5006541;28;20517;-68
2022/04/18 10:21:02;;;;;;;4.73;4.53;;;21.70;41.00;;;;;;5010195;28;20187;-66
2022/04/18 10:23:49;;;;;;;4.80;4.60;;;21.90;42.00;;;;;;5008785;28;21327;-68
2022/04/18 10:26:34;;;;;;;5.27;4.60;;;21.90;38.50;;;;;;5010460;28;20474;-69
2022/04/18 10:29:14;;;;;;;5.13;4.83;;;21.80;40.80;;;;;;5009531;28;20442;-69
2022/04/18 10:31:42;;;;;;;5.17;4.93;;;21.90;41.20;;;;;;5008369;28;20497;-70
2022/04/18 10:34:13;;;;;;;5.03;4.63;;;22.00;39.90;;;;;;5004086;28;20925;-75
2022/04/18 10:36:50;;;;;;;5.10;4.90;;;21.80;36.30;;;;;;5014293;28;20445;-69
2022/04/18 10:39:18;;;;;;;5.77;5.37;;;21.80;39.90;;;;;;5013354;28;20435;-73
2022/04/18 10:41:46;;;;;;;5.40;5.10;;;21.80;39.30;;;;;;5014460;28;20791;-69
2022/04/18 10:44:17;;;;;;;6.63;6.03;;;21.90;40.10;;;;;;5011672;28;20913;-80
2022/04/18 10:47:03;;;;;;;4.57;4.27;;;22.10;40.90;;;;;;5013612;28;20458;-71
2022/04/18 10:49:33;;;;;;;5.73;5.33;;;22.30;40.50;;;;;;5011095;28;20511;-69
2022/04/18 10:52:09;;;;;;;4.47;4.13;;;22.30;40.60;;;;;;5013112;28;20454;-69
2022/04/18 10:54:36;;;;;;;5.10;4.80;;;22.40;42.30;;;;;;5010564;28;20532;-73
2022/04/18 10:57:11;;;;;;;4.70;4.50;;;22.50;41.00;;;;;;5011425;28;20833;-72
2022/04/18 10:59:42;;;;;;;5.93;5.53;;;22.50;40.50;;;;;;5013964;28;20438;-73
2022/04/18 11:02:08;;;;;;;4.83;4.53;;;22.70;41.90;;;;;;5012113;28;20426;-73
2022/04/18 11:04:40;;;;;;;5.10;4.90;;;22.80;42.40;;;;;;5010663;28;21609;-69
2022/04/18 11:07:08;;;;;;;5.60;5.30;;;23.00;41.80;;;;;;5011567;28;20434;-68
2022/04/18 11:09:52;;;;;;;4.73;4.53;;;23.00;38.90;;;;;;5012912;28;20517;-68
2022/04/18 11:12:20;;;;;;;5.40;5.10;;;22.70;39.50;;;;;;5012856;28;20429;-69
2022/04/18 11:14:54;;;;;;;4.57;4.27;;;22.70;41.10;;;;;;5012892;28;20429;-69
2022/04/18 11:17:31;;;;;;;5.10;4.60;;;22.80;42.30;;;;;;5012689;28;20447;-69
2022/04/18 11:20:21;;;;;;;5.00;4.70;;;23.00;41.60;;;;;;5012322;28;20446;-69
2022/04/18 11:23:16;;;;;;;4.77;4.47;;;23.10;39.20;;;;;;5000316;28;20436;-71
2022/04/18 11:25:56;;;;;;;4.90;4.50;;;23.20;42.50;;;;;;5021650;28;21018;-70
2022/04/18 11:28:23;;;;;;;5.00;4.80;;;23.30;42.30;;;;;;5012914;28;20429;-70
2022/04/18 11:30:49;;;;;;;5.13;4.83;;;23.50;41.70;;;;;;5011378;28;20438;-69
2022/04/18 11:33:15;;;;;;;5.00;4.70;;;23.50;41.70;;;;;;5027354;28;20429;-70
2022/04/18 11:35:42;;;;;;;5.03;4.73;;;23.50;39.70;;;;;;5012236;28;20942;-69
2022/04/18 11:38:10;;;;;;;6.17;5.77;;;23.60;41.20;;;;;;5013393;28;20191;-75
2022/04/18 11:40:40;;;;;;;4.80;4.60;;;23.60;39.40;;;;;;5013380;28;20917;-74
2022/04/18 11:43:13;;;;;;;5.50;5.10;;;23.70;40.90;;;;;;5012124;28;20438;-74
2022/04/18 11:45:39;;;;;;;5.63;5.23;;;23.80;41.00;;;;;;5012553;28;20965;-74
2022/04/18 11:48:06;;;;;;;6.10;5.70;;;23.80;39.20;;;;;;5013076;28;20457;-74
2022/04/18 11:50:36;;;;;;;5.27;4.97;;;23.50;37.40;;;;;;5011187;28;20450;-73
2022/04/18 11:53:06;;;;;;;5.40;5.10;;;23.30;38.50;;;;;;5012284;28;20440;-74
2022/04/18 11:55:46;;;;;;;5.27;4.97;;;23.40;40.90;;;;;;5011290;28;20456;-74
2022/04/18 11:58:17;;;;;;;5.90;5.60;;;23.50;40.90;;;;;;5004195;28;20472;-74
2022/04/18 12:09:00;;;;;;;5.90;5.60;;;23.60;39.60;;;;;;5010931;28;20422;-71
2022/04/18 12:11:32;;;;;;;6.40;6.00;;;23.80;40.60;;;;;;5012596;28;20428;-71
2022/04/18 12:13:59;;;;;;;7.93;7.23;;;23.90;41.50;;;;;;5011504;28;20673;-71
2022/04/18 12:16:25;;;;;;;6.00;5.50;;;24.00;43.70;;;;;;5011381;28;20499;-70
2022/04/18 12:18:55;;;;;;;6.53;6.07;;;23.90;41.50;;;;;;5012039;28;20433;-70
2022/04/18 12:21:22;;;;;;;6.70;6.37;;;23.80;39.70;;;;;;5004724;28;20442;-71
2022/04/18 12:23:55;;;;;;;5.90;5.50;;;23.50;40.30;;;;;;5012137;28;20458;-70
2022/04/18 12:26:31;;;;;;;5.57;5.23;;;23.60;41.00;;;;;;4999602;28;20557;-70
2022/04/18 12:29:00;;;;;;;6.50;6.10;;;23.60;40.80;;;;;;5012544;28;20409;-70
2022/04/18 12:31:25;;;;;;;5.73;5.43;;;23.50;40.30;;;;;;5009895;28;20980;-70
2022/04/18 12:33:51;;;;;;;5.57;5.27;;;23.60;41.80;;;;;;5010596;28;20426;-70
2022/04/18 12:36:24;;;;;;;5.27;4.97;;;23.60;40.40;;;;;;5011261;28;20206;-77
2022/04/18 12:38:50;;;;;;;5.03;4.80;;;23.60;40.10;;;;;;5010120;28;20240;-70
2022/04/18 12:41:33;;;;;;;109.07;81.67;;;23.60;40.80;;;;;;5010342;28;20434;-75
2022/04/18 12:43:59;;;;;;;99.03;78.63;;;23.60;41.70;;;;;;5010886;28;20484;-77
2022/04/18 12:46:32;;;;;;;8.20;7.60;;;23.60;41.50;;;;;;5009317;28;20500;-70
2022/04/18 12:49:05;;;;;;;5.80;5.50;;;23.70;43.10;;;;;;5009428;28;20560;-71
2022/04/18 12:51:37;;;;;;;5.20;4.90;;;23.70;40.80;;;;;;4991462;28;20446;-72
2022/04/18 12:54:04;;;;;;;5.23;4.93;;;23.70;42.40;;;;;;5009069;28;20429;-68
2022/04/18 12:56:33;;;;;;;5.07;4.60;;;23.70;42.40;;;;;;5008248;28;20445;-69
2022/04/18 12:59:06;;;;;;;5.03;4.73;;;23.70;41.10;;;;;;5010176;28;20580;-71
2022/04/18 13:01:40;;;;;;;4.40;4.20;;;22.80;38.00;;;;;;5007795;28;20457;-69
2022/04/18 13:04:23;;;;;;;4.90;4.70;;;22.40;39.10;;;;;;5010181;28;20440;-68
2022/04/18 13:06:58;;;;;;;5.47;5.07;;;22.30;41.30;;;;;;5007812;28;20956;-69
2022/04/18 13:09:24;;;;;;;5.20;4.90;;;21.80;39.00;;;;;;5006882;28;20494;-69
2022/04/18 13:12:03;;;;;;;5.20;4.80;;;21.80;39.40;;;;;;4991972;28;20433;-70